Terminal Aerodrome Forecast
Issued by NWS

Home | Current Version | Previous Version | Text Only | Print | Product List | Glossary On
Versions: 1 2 3 4 5 6 7 8 9 10 11 12 13 14 15 16 17 18 19
000
FTUS45 KFGZ 242222 AAC
TAFSEZ
TAF AMD
KSEZ 242222Z 2422/2518 VRB05KT P6SM FEW006 FEW030 SCT100=

USA.gov is the U.S. government's official web portal to all federal, state and local government web resources and services.